sensor_id;sensor_type;location;lat;lon;timestamp;temperature;humidity
19483;DHT22;9882;51.166;6.992;2023-08-31T00:01:37;15.70;99.90
19483;DHT22;9882;51.166;6.992;2023-08-31T00:04:06;15.60;99.90
19483;DHT22;9882;51.166;6.992;2023-08-31T00:06:42;15.60;99.90
19483;DHT22;9882;51.166;6.992;2023-08-31T00:09:14;15.60;99.90
19483;DHT22;9882;51.166;6.992;2023-08-31T00:11:45;15.60;99.90
19483;DHT22;9882;51.166;6.992;2023-08-31T00:14:14;15.50;99.90
19483;DHT22;9882;51.166;6.992;2023-08-31T00:16:43;15.60;99.90
19483;DHT22;9882;51.166;6.992;2023-08-31T00:19:14;15.60;99.90
19483;DHT22;9882;51.166;6.992;2023-08-31T00:21:43;15.40;99.90
19483;DHT22;9882;51.166;6.992;2023-08-31T00:24:12;15.40;99.90
19483;DHT22;9882;51.166;6.992;2023-08-31T00:26:43;15.50;99.90
19483;DHT22;9882;51.166;6.992;2023-08-31T00:29:12;15.00;99.90
19483;DHT22;9882;51.166;6.992;2023-08-31T00:31:44;15.30;99.90
19483;DHT22;9882;51.166;6.992;2023-08-31T00:34:15;15.30;99.90
19483;DHT22;9882;51.166;6.992;2023-08-31T00:36:45;15.30;99.90
19483;DHT22;9882;51.166;6.992;2023-08-31T00:39:14;15.40;99.90
19483;DHT22;9882;51.166;6.992;2023-08-31T00:41:46;15.40;99.90
19483;DHT22;9882;51.166;6.992;2023-08-31T00:44:15;15.40;99.90
19483;DHT22;9882;51.166;6.992;2023-08-31T00:46:48;15.50;99.90
19483;DHT22;9882;51.166;6.992;2023-08-31T00:49:17;15.40;99.90
19483;DHT22;9882;51.166;6.992;2023-08-31T00:51:46;15.40;99.90
19483;DHT22;9882;51.166;6.992;2023-08-31T00:54:18;15.40;99.90
19483;DHT22;9882;51.166;6.992;2023-08-31T00:56:53;15.40;99.90
19483;DHT22;9882;51.166;6.992;2023-08-31T00:59:23;15.40;99.90
19483;DHT22;9882;51.166;6.992;2023-08-31T01:02:01;15.40;99.90
19483;DHT22;9882;51.166;6.992;2023-08-31T01:04:40;15.40;99.90
19483;DHT22;9882;51.166;6.992;2023-08-31T01:07:25;15.40;99.90
19483;DHT22;9882;51.166;6.992;2023-08-31T01:10:04;15.40;99.90
19483;DHT22;9882;51.166;6.992;2023-08-31T01:12:43;15.30;99.90
19483;DHT22;9882;51.166;6.992;2023-08-31T01:15:14;15.30;99.90
19483;DHT22;9882;51.166;6.992;2023-08-31T01:17:47;15.30;99.90
19483;DHT22;9882;51.166;6.992;2023-08-31T01:20:19;15.40;99.90
19483;DHT22;9882;51.166;6.992;2023-08-31T01:22:55;15.40;99.90
19483;DHT22;9882;51.166;6.992;2023-08-31T01:25:28;15.30;99.90
19483;DHT22;9882;51.166;6.992;2023-08-31T01:27:59;14.80;99.90
19483;DHT22;9882;51.166;6.992;2023-08-31T01:30:30;14.90;99.90
19483;DHT22;9882;51.166;6.992;2023-08-31T01:33:00;15.10;99.90
19483;DHT22;9882;51.166;6.992;2023-08-31T01:35:33;15.10;99.90
19483;DHT22;9882;51.166;6.992;2023-08-31T01:38:05;15.20;99.90
19483;DHT22;9882;51.166;6.992;2023-08-31T01:40:46;15.20;99.90
19483;DHT22;9882;51.166;6.992;2023-08-31T01:43:17;15.20;99.90
19483;DHT22;9882;51.166;6.992;2023-08-31T01:45:48;15.20;99.90
19483;DHT22;9882;51.166;6.992;2023-08-31T01:48:17;15.20;99.90
19483;DHT22;9882;51.166;6.992;2023-08-31T01:50:46;15.20;99.90
19483;DHT22;9882;51.166;6.992;2023-08-31T01:53:15;15.20;99.90
19483;DHT22;9882;51.166;6.992;2023-08-31T01:55:51;15.20;99.90
19483;DHT22;9882;51.166;6.992;2023-08-31T01:58:21;15.10;99.90
19483;DHT22;9882;51.166;6.992;2023-08-31T02:00:50;15.00;99.90
19483;DHT22;9882;51.166;6.992;2023-08-31T02:03:19;15.10;99.90
19483;DHT22;9882;51.166;6.992;2023-08-31T02:05:48;14.90;99.90
19483;DHT22;9882;51.166;6.992;2023-08-31T02:08:17;15.00;99.90
19483;DHT22;9882;51.166;6.992;2023-08-31T02:10:47;15.00;99.90
19483;DHT22;9882;51.166;6.992;2023-08-31T02:13:24;15.00;99.90
19483;DHT22;9882;51.166;6.992;2023-08-31T02:15:53;15.00;99.90
19483;DHT22;9882;51.166;6.992;2023-08-31T02:18:22;15.00;99.90
19483;DHT22;9882;51.166;6.992;2023-08-31T02:20:52;15.00;99.90
19483;DHT22;9882;51.166;6.992;2023-08-31T02:23:21;15.00;99.90
19483;DHT22;9882;51.166;6.992;2023-08-31T02:25:50;15.00;99.90
19483;DHT22;9882;51.166;6.992;2023-08-31T02:28:19;15.00;99.90
19483;DHT22;9882;51.166;6.992;2023-08-31T02:30:57;15.00;99.90
19483;DHT22;9882;51.166;6.992;2023-08-31T02:33:30;15.00;99.90
19483;DHT22;9882;51.166;6.992;2023-08-31T02:35:59;15.00;99.90
19483;DHT22;9882;51.166;6.992;2023-08-31T02:38:29;15.00;99.90
19483;DHT22;9882;51.166;6.992;2023-08-31T02:40:58;14.90;99.90
19483;DHT22;9882;51.166;6.992;2023-08-31T02:43:26;14.80;99.90
19483;DHT22;9882;51.166;6.992;2023-08-31T02:46:03;14.90;99.90
19483;DHT22;9882;51.166;6.992;2023-08-31T02:48:32;14.90;99.90
19483;DHT22;9882;51.166;6.992;2023-08-31T02:51:01;14.90;99.90
19483;DHT22;9882;51.166;6.992;2023-08-31T02:53:31;14.90;99.90
19483;DHT22;9882;51.166;6.992;2023-08-31T02:56:00;14.90;99.90
19483;DHT22;9882;51.166;6.992;2023-08-31T02:58:30;14.80;99.90
19483;DHT22;9882;51.166;6.992;2023-08-31T03:01:08;14.90;99.90
19483;DHT22;9882;51.166;6.992;2023-08-31T03:03:42;14.80;99.90
19483;DHT22;9882;51.166;6.992;2023-08-31T03:06:13;14.80;99.90
19483;DHT22;9882;51.166;6.992;2023-08-31T03:08:42;14.80;99.90
19483;DHT22;9882;51.166;6.992;2023-08-31T03:11:12;14.70;99.90
19483;DHT22;9882;51.166;6.992;2023-08-31T03:13:42;14.80;99.90
19483;DHT22;9882;51.166;6.992;2023-08-31T03:16:14;14.80;99.90
19483;DHT22;9882;51.166;6.992;2023-08-31T03:18:43;14.80;99.90
19483;DHT22;9882;51.166;6.992;2023-08-31T03:21:12;14.80;99.90
19483;DHT22;9882;51.166;6.992;2023-08-31T03:23:41;14.70;99.90
19483;DHT22;9882;51.166;6.992;2023-08-31T03:26:12;14.80;99.90
19483;DHT22;9882;51.166;6.992;2023-08-31T03:28:41;14.80;99.90
19483;DHT22;9882;51.166;6.992;2023-08-31T03:31:10;14.70;99.90
19483;DHT22;9882;51.166;6.992;2023-08-31T03:33:42;14.80;99.90
19483;DHT22;9882;51.166;6.992;2023-08-31T03:36:11;14.70;99.90
19483;DHT22;9882;51.166;6.992;2023-08-31T03:38:40;14.70;99.90
19483;DHT22;9882;51.166;6.992;2023-08-31T03:41:10;14.70;99.90
19483;DHT22;9882;51.166;6.992;2023-08-31T03:43:39;14.70;99.90
19483;DHT22;9882;51.166;6.992;2023-08-31T03:46:15;14.70;99.90
19483;DHT22;9882;51.166;6.992;2023-08-31T03:48:56;14.70;99.90
19483;DHT22;9882;51.166;6.992;2023-08-31T03:51:35;14.70;99.90
19483;DHT22;9882;51.166;6.992;2023-08-31T03:54:04;14.70;99.90
19483;DHT22;9882;51.166;6.992;2023-08-31T03:56:33;14.60;99.90
19483;DHT22;9882;51.166;6.992;2023-08-31T03:59:02;14.50;99.90
19483;DHT22;9882;51.166;6.992;2023-08-31T04:01:32;14.60;99.90
19483;DHT22;9882;51.166;6.992;2023-08-31T04:04:03;14.50;99.90
19483;DHT22;9882;51.166;6.992;2023-08-31T04:06:33;14.40;99.90
19483;DHT22;9882;51.166;6.992;2023-08-31T04:09:05;14.40;99.90
19483;DHT22;9882;51.166;6.992;2023-08-31T04:11:35;14.40;99.90
19483;DHT22;9882;51.166;6.992;2023-08-31T04:14:03;14.40;99.90
19483;DHT22;9882;51.166;6.992;2023-08-31T04:16:32;14.40;99.90
19483;DHT22;9882;51.166;6.992;2023-08-31T04:19:02;14.40;99.90
19483;DHT22;9882;51.166;6.992;2023-08-31T04:21:31;14.50;99.90
19483;DHT22;9882;51.166;6.992;2023-08-31T04:24:00;14.60;99.90
19483;DHT22;9882;51.166;6.992;2023-08-31T04:26:30;14.30;99.90
19483;DHT22;9882;51.166;6.992;2023-08-31T04:28:59;14.50;99.90
19483;DHT22;9882;51.166;6.992;2023-08-31T04:31:28;14.40;99.90
19483;DHT22;9882;51.166;6.992;2023-08-31T04:33:57;14.30;99.90
19483;DHT22;9882;51.166;6.992;2023-08-31T04:36:27;14.50;99.90
19483;DHT22;9882;51.166;6.992;2023-08-31T04:38:56;14.40;99.90
19483;DHT22;9882;51.166;6.992;2023-08-31T04:41:27;14.50;99.90
19483;DHT22;9882;51.166;6.992;2023-08-31T04:44:26;14.40;99.90
19483;DHT22;9882;51.166;6.992;2023-08-31T04:53:37;14.20;99.90
19483;DHT22;9882;51.166;6.992;2023-08-31T04:56:19;14.30;99.90
19483;DHT22;9882;51.166;6.992;2023-08-31T04:59:15;14.30;99.90
19483;DHT22;9882;51.166;6.992;2023-08-31T05:18:43;14.10;99.90
19483;DHT22;9882;51.166;6.992;2023-08-31T05:21:11;14.00;99.90
19483;DHT22;9882;51.166;6.992;2023-08-31T05:23:40;14.20;99.90
19483;DHT22;9882;51.166;6.992;2023-08-31T05:26:08;14.10;99.90
19483;DHT22;9882;51.166;6.992;2023-08-31T05:28:37;14.00;99.90
19483;DHT22;9882;51.166;6.992;2023-08-31T05:31:06;14.10;99.90
19483;DHT22;9882;51.166;6.992;2023-08-31T05:33:34;14.20;99.90
19483;DHT22;9882;51.166;6.992;2023-08-31T05:36:05;13.90;99.90
19483;DHT22;9882;51.166;6.992;2023-08-31T05:38:34;14.10;99.90
19483;DHT22;9882;51.166;6.992;2023-08-31T05:41:06;14.20;99.90
19483;DHT22;9882;51.166;6.992;2023-08-31T05:43:36;14.30;99.90
19483;DHT22;9882;51.166;6.992;2023-08-31T05:46:07;14.30;99.90
19483;DHT22;9882;51.166;6.992;2023-08-31T05:48:36;14.20;99.90
19483;DHT22;9882;51.166;6.992;2023-08-31T05:51:06;14.00;99.90
19483;DHT22;9882;51.166;6.992;2023-08-31T05:53:35;14.20;99.90
19483;DHT22;9882;51.166;6.992;2023-08-31T05:56:04;14.30;99.90
19483;DHT22;9882;51.166;6.992;2023-08-31T05:58:35;14.00;99.90
19483;DHT22;9882;51.166;6.992;2023-08-31T06:01:04;14.20;99.90
19483;DHT22;9882;51.166;6.992;2023-08-31T06:03:33;14.20;99.90
19483;DHT22;9882;51.166;6.992;2023-08-31T06:06:02;14.30;99.90
19483;DHT22;9882;51.166;6.992;2023-08-31T06:08:32;14.30;99.90
19483;DHT22;9882;51.166;6.992;2023-08-31T06:11:01;14.20;99.90
19483;DHT22;9882;51.166;6.992;2023-08-31T06:13:30;14.30;99.90
19483;DHT22;9882;51.166;6.992;2023-08-31T06:15:58;14.40;99.90
19483;DHT22;9882;51.166;6.992;2023-08-31T06:18:27;14.40;99.90
19483;DHT22;9882;51.166;6.992;2023-08-31T06:20:55;14.40;99.90
19483;DHT22;9882;51.166;6.992;2023-08-31T06:23:24;14.40;99.90
19483;DHT22;9882;51.166;6.992;2023-08-31T06:25:54;14.40;99.90
19483;DHT22;9882;51.166;6.992;2023-08-31T06:28:22;14.40;99.90
19483;DHT22;9882;51.166;6.992;2023-08-31T06:30:51;14.40;99.90
19483;DHT22;9882;51.166;6.992;2023-08-31T06:33:19;14.40;99.90
19483;DHT22;9882;51.166;6.992;2023-08-31T06:35:48;14.40;99.90
19483;DHT22;9882;51.166;6.992;2023-08-31T06:38:19;14.40;99.90
19483;DHT22;9882;51.166;6.992;2023-08-31T06:40:48;14.30;99.90
19483;DHT22;9882;51.166;6.992;2023-08-31T06:43:18;14.40;99.90
19483;DHT22;9882;51.166;6.992;2023-08-31T06:45:46;14.30;99.90
19483;DHT22;9882;51.166;6.992;2023-08-31T06:48:15;14.20;99.90
19483;DHT22;9882;51.166;6.992;2023-08-31T06:50:43;14.10;99.90
19483;DHT22;9882;51.166;6.992;2023-08-31T06:53:12;14.10;99.90
19483;DHT22;9882;51.166;6.992;2023-08-31T06:55:41;14.20;99.90
19483;DHT22;9882;51.166;6.992;2023-08-31T06:58:09;14.20;99.90
19483;DHT22;9882;51.166;6.992;2023-08-31T07:00:39;14.10;99.90
19483;DHT22;9882;51.166;6.992;2023-08-31T07:03:08;14.10;99.90
19483;DHT22;9882;51.166;6.992;2023-08-31T07:05:41;14.20;99.90
19483;DHT22;9882;51.166;6.992;2023-08-31T07:08:10;14.20;99.90
19483;DHT22;9882;51.166;6.992;2023-08-31T07:10:39;14.10;99.90
19483;DHT22;9882;51.166;6.992;2023-08-31T07:13:07;14.10;99.90
19483;DHT22;9882;51.166;6.992;2023-08-31T07:15:36;14.00;99.90
19483;DHT22;9882;51.166;6.992;2023-08-31T07:18:06;13.80;99.90
19483;DHT22;9882;51.166;6.992;2023-08-31T07:20:34;13.90;99.90
19483;DHT22;9882;51.166;6.992;2023-08-31T07:23:03;13.90;99.90
19483;DHT22;9882;51.166;6.992;2023-08-31T07:25:32;13.80;99.90
19483;DHT22;9882;51.166;6.992;2023-08-31T07:28:00;13.80;99.90
19483;DHT22;9882;51.166;6.992;2023-08-31T07:30:30;13.80;99.90
19483;DHT22;9882;51.166;6.992;2023-08-31T07:33:00;13.90;99.90
19483;DHT22;9882;51.166;6.992;2023-08-31T07:35:36;13.90;99.90
19483;DHT22;9882;51.166;6.992;2023-08-31T07:38:05;13.80;99.90
19483;DHT22;9882;51.166;6.992;2023-08-31T07:40:34;13.90;99.90
19483;DHT22;9882;51.166;6.992;2023-08-31T07:43:02;13.90;99.90
19483;DHT22;9882;51.166;6.992;2023-08-31T07:45:31;13.90;99.90
19483;DHT22;9882;51.166;6.992;2023-08-31T07:48:00;14.00;99.90
19483;DHT22;9882;51.166;6.992;2023-08-31T07:50:28;13.90;99.90
19483;DHT22;9882;51.166;6.992;2023-08-31T07:52:58;14.00;99.90
19483;DHT22;9882;51.166;6.992;2023-08-31T07:55:27;14.20;99.90
19483;DHT22;9882;51.166;6.992;2023-08-31T07:57:55;14.20;99.90
19483;DHT22;9882;51.166;6.992;2023-08-31T08:00:24;14.30;99.90
19483;DHT22;9882;51.166;6.992;2023-08-31T08:02:52;14.30;99.90
19483;DHT22;9882;51.166;6.992;2023-08-31T08:05:21;14.40;99.90
19483;DHT22;9882;51.166;6.992;2023-08-31T08:07:49;14.50;99.90
19483;DHT22;9882;51.166;6.992;2023-08-31T08:10:19;14.50;99.90
19483;DHT22;9882;51.166;6.992;2023-08-31T08:12:48;14.50;99.90
19483;DHT22;9882;51.166;6.992;2023-08-31T08:15:16;14.60;99.90
19483;DHT22;9882;51.166;6.992;2023-08-31T08:17:45;14.80;99.90
19483;DHT22;9882;51.166;6.992;2023-08-31T08:20:14;14.60;99.90
19483;DHT22;9882;51.166;6.992;2023-08-31T08:22:43;14.60;99.90
19483;DHT22;9882;51.166;6.992;2023-08-31T08:25:12;14.60;99.90
19483;DHT22;9882;51.166;6.992;2023-08-31T08:27:42;14.90;99.90
19483;DHT22;9882;51.166;6.992;2023-08-31T08:30:10;14.80;99.90
19483;DHT22;9882;51.166;6.992;2023-08-31T08:32:39;14.70;99.90
19483;DHT22;9882;51.166;6.992;2023-08-31T08:35:08;14.80;99.90
19483;DHT22;9882;51.166;6.992;2023-08-31T08:37:36;15.00;99.90
19483;DHT22;9882;51.166;6.992;2023-08-31T08:40:06;15.10;99.90
19483;DHT22;9882;51.166;6.992;2023-08-31T08:42:39;14.90;99.90
19483;DHT22;9882;51.166;6.992;2023-08-31T08:45:13;15.20;99.90
19483;DHT22;9882;51.166;6.992;2023-08-31T08:47:44;15.00;99.90
19483;DHT22;9882;51.166;6.992;2023-08-31T08:50:13;15.20;99.90
19483;DHT22;9882;51.166;6.992;2023-08-31T08:52:42;15.30;99.90
19483;DHT22;9882;51.166;6.992;2023-08-31T08:55:11;15.60;99.90
19483;DHT22;9882;51.166;6.992;2023-08-31T08:57:39;15.40;99.90
19483;DHT22;9882;51.166;6.992;2023-08-31T09:00:09;15.40;99.90
19483;DHT22;9882;51.166;6.992;2023-08-31T09:02:39;15.50;99.90
19483;DHT22;9882;51.166;6.992;2023-08-31T09:05:08;15.70;99.90
19483;DHT22;9882;51.166;6.992;2023-08-31T09:07:38;16.10;99.90
19483;DHT22;9882;51.166;6.992;2023-08-31T09:10:07;15.80;99.90
19483;DHT22;9882;51.166;6.992;2023-08-31T09:12:36;16.00;99.90
19483;DHT22;9882;51.166;6.992;2023-08-31T09:15:07;15.80;99.90
19483;DHT22;9882;51.166;6.992;2023-08-31T09:17:41;15.60;99.90
19483;DHT22;9882;51.166;6.992;2023-08-31T09:20:11;15.60;99.90
19483;DHT22;9882;51.166;6.992;2023-08-31T09:22:43;15.70;99.90
19483;DHT22;9882;51.166;6.992;2023-08-31T09:25:12;15.90;99.90
19483;DHT22;9882;51.166;6.992;2023-08-31T09:27:41;15.90;99.90
19483;DHT22;9882;51.166;6.992;2023-08-31T09:30:12;15.90;99.90
19483;DHT22;9882;51.166;6.992;2023-08-31T09:32:42;15.90;99.90
19483;DHT22;9882;51.166;6.992;2023-08-31T09:35:11;16.00;99.90
19483;DHT22;9882;51.166;6.992;2023-08-31T09:37:55;16.00;99.90
19483;DHT22;9882;51.166;6.992;2023-08-31T09:40:24;16.20;99.90
19483;DHT22;9882;51.166;6.992;2023-08-31T09:42:53;16.50;99.90
19483;DHT22;9882;51.166;6.992;2023-08-31T09:45:27;16.40;99.90
19483;DHT22;9882;51.166;6.992;2023-08-31T09:48:08;16.40;99.90
19483;DHT22;9882;51.166;6.992;2023-08-31T09:50:37;16.50;99.90
19483;DHT22;9882;51.166;6.992;2023-08-31T09:53:08;16.60;99.90
19483;DHT22;9882;51.166;6.992;2023-08-31T09:55:39;16.80;99.90
19483;DHT22;9882;51.166;6.992;2023-08-31T09:58:08;16.70;99.90
19483;DHT22;9882;51.166;6.992;2023-08-31T10:00:40;16.80;99.90
19483;DHT22;9882;51.166;6.992;2023-08-31T10:03:12;16.90;99.90
19483;DHT22;9882;51.166;6.992;2023-08-31T10:05:43;16.80;99.90
19483;DHT22;9882;51.166;6.992;2023-08-31T10:08:12;17.20;99.90
19483;DHT22;9882;51.166;6.992;2023-08-31T10:10:42;17.20;99.90
19483;DHT22;9882;51.166;6.992;2023-08-31T10:13:11;17.00;99.90
19483;DHT22;9882;51.166;6.992;2023-08-31T10:15:41;16.90;99.90
19483;DHT22;9882;51.166;6.992;2023-08-31T10:18:13;16.80;99.90
19483;DHT22;9882;51.166;6.992;2023-08-31T10:20:42;17.00;99.90
19483;DHT22;9882;51.166;6.992;2023-08-31T10:23:13;17.10;99.90
19483;DHT22;9882;51.166;6.992;2023-08-31T10:26:02;17.30;99.90
19483;DHT22;9882;51.166;6.992;2023-08-31T10:28:41;17.20;99.90
19483;DHT22;9882;51.166;6.992;2023-08-31T10:31:14;17.20;99.90
19483;DHT22;9882;51.166;6.992;2023-08-31T10:33:45;17.20;99.90
19483;DHT22;9882;51.166;6.992;2023-08-31T10:36:15;17.30;99.90
19483;DHT22;9882;51.166;6.992;2023-08-31T10:38:45;17.40;99.90
19483;DHT22;9882;51.166;6.992;2023-08-31T10:41:21;17.50;99.90
19483;DHT22;9882;51.166;6.992;2023-08-31T10:43:52;17.50;99.90
19483;DHT22;9882;51.166;6.992;2023-08-31T10:46:29;17.50;99.90
19483;DHT22;9882;51.166;6.992;2023-08-31T10:49:00;17.50;99.90
19483;DHT22;9882;51.166;6.992;2023-08-31T10:51:31;17.80;99.90
19483;DHT22;9882;51.166;6.992;2023-08-31T10:54:08;17.90;99.90
19483;DHT22;9882;51.166;6.992;2023-08-31T10:57:03;17.90;99.90
19483;DHT22;9882;51.166;6.992;2023-08-31T10:59:44;17.90;99.90
19483;DHT22;9882;51.166;6.992;2023-08-31T11:02:29;17.80;99.90
19483;DHT22;9882;51.166;6.992;2023-08-31T11:05:07;17.90;99.90
19483;DHT22;9882;51.166;6.992;2023-08-31T11:07:36;17.90;99.90
19483;DHT22;9882;51.166;6.992;2023-08-31T11:10:13;17.90;99.90
19483;DHT22;9882;51.166;6.992;2023-08-31T11:12:43;17.90;99.90
19483;DHT22;9882;51.166;6.992;2023-08-31T11:15:13;17.80;99.90
19483;DHT22;9882;51.166;6.992;2023-08-31T11:17:43;17.80;99.90
19483;DHT22;9882;51.166;6.992;2023-08-31T11:20:15;17.90;99.90
19483;DHT22;9882;51.166;6.992;2023-08-31T11:22:45;18.10;99.90
19483;DHT22;9882;51.166;6.992;2023-08-31T11:25:13;18.10;99.90
19483;DHT22;9882;51.166;6.992;2023-08-31T11:27:42;18.00;99.90
19483;DHT22;9882;51.166;6.992;2023-08-31T11:30:20;18.00;99.90
19483;DHT22;9882;51.166;6.992;2023-08-31T11:32:51;17.90;99.90
19483;DHT22;9882;51.166;6.992;2023-08-31T11:35:22;17.80;99.90
19483;DHT22;9882;51.166;6.992;2023-08-31T11:37:55;17.50;99.90
19483;DHT22;9882;51.166;6.992;2023-08-31T11:40:25;17.60;99.90
19483;DHT22;9882;51.166;6.992;2023-08-31T11:42:54;17.50;99.90
19483;DHT22;9882;51.166;6.992;2023-08-31T11:45:24;16.80;99.90
19483;DHT22;9882;51.166;6.992;2023-08-31T11:47:53;16.50;99.90
19483;DHT22;9882;51.166;6.992;2023-08-31T11:50:24;16.30;99.90
19483;DHT22;9882;51.166;6.992;2023-08-31T11:52:54;16.00;99.90
19483;DHT22;9882;51.166;6.992;2023-08-31T11:55:22;15.90;99.90
19483;DHT22;9882;51.166;6.992;2023-08-31T11:57:51;16.00;99.90
19483;DHT22;9882;51.166;6.992;2023-08-31T12:00:22;16.00;99.90
19483;DHT22;9882;51.166;6.992;2023-08-31T12:02:56;16.20;99.90
19483;DHT22;9882;51.166;6.992;2023-08-31T12:05:27;16.30;99.90
19483;DHT22;9882;51.166;6.992;2023-08-31T12:07:56;16.50;99.90
19483;DHT22;9882;51.166;6.992;2023-08-31T12:10:25;16.30;99.90
19483;DHT22;9882;51.166;6.992;2023-08-31T12:13:07;16.40;99.90
19483;DHT22;9882;51.166;6.992;2023-08-31T12:15:36;16.50;99.90
19483;DHT22;9882;51.166;6.992;2023-08-31T12:18:08;16.50;99.90
19483;DHT22;9882;51.166;6.992;2023-08-31T12:20:44;16.60;99.90
19483;DHT22;9882;51.166;6.992;2023-08-31T12:23:13;16.70;99.90
19483;DHT22;9882;51.166;6.992;2023-08-31T12:25:46;16.80;99.90
19483;DHT22;9882;51.166;6.992;2023-08-31T12:28:16;16.70;99.90
19483;DHT22;9882;51.166;6.992;2023-08-31T12:30:47;16.90;99.90
19483;DHT22;9882;51.166;6.992;2023-08-31T12:33:18;17.20;99.90
19483;DHT22;9882;51.166;6.992;2023-08-31T12:35:48;17.30;99.90
19483;DHT22;9882;51.166;6.992;2023-08-31T12:38:16;17.60;99.90
19483;DHT22;9882;51.166;6.992;2023-08-31T12:40:46;17.70;99.90
19483;DHT22;9882;51.166;6.992;2023-08-31T12:43:14;17.70;99.90
19483;DHT22;9882;51.166;6.992;2023-08-31T12:45:43;17.60;99.90
19483;DHT22;9882;51.166;6.992;2023-08-31T12:48:12;17.50;99.90
19483;DHT22;9882;51.166;6.992;2023-08-31T12:50:40;17.40;99.90
19483;DHT22;9882;51.166;6.992;2023-08-31T12:53:10;17.30;99.90
19483;DHT22;9882;51.166;6.992;2023-08-31T12:55:39;17.40;99.90
19483;DHT22;9882;51.166;6.992;2023-08-31T12:58:08;17.40;99.90
19483;DHT22;9882;51.166;6.992;2023-08-31T13:00:36;17.40;99.90
19483;DHT22;9882;51.166;6.992;2023-08-31T13:03:05;17.30;99.90
19483;DHT22;9882;51.166;6.992;2023-08-31T13:05:34;17.40;99.90
19483;DHT22;9882;51.166;6.992;2023-08-31T13:08:03;17.40;99.90
19483;DHT22;9882;51.166;6.992;2023-08-31T13:10:34;17.50;99.90
19483;DHT22;9882;51.166;6.992;2023-08-31T13:13:02;17.40;99.90
19483;DHT22;9882;51.166;6.992;2023-08-31T13:15:31;17.40;99.90
19483;DHT22;9882;51.166;6.992;2023-08-31T13:18:00;17.60;99.90
19483;DHT22;9882;51.166;6.992;2023-08-31T13:20:29;17.50;99.90
19483;DHT22;9882;51.166;6.992;2023-08-31T13:22:58;17.60;99.90
19483;DHT22;9882;51.166;6.992;2023-08-31T13:25:27;17.70;99.90
19483;DHT22;9882;51.166;6.992;2023-08-31T13:27:56;17.80;99.90
19483;DHT22;9882;51.166;6.992;2023-08-31T13:30:25;17.90;99.90
19483;DHT22;9882;51.166;6.992;2023-08-31T13:32:53;18.10;99.90
19483;DHT22;9882;51.166;6.992;2023-08-31T13:35:22;18.40;99.90
19483;DHT22;9882;51.166;6.992;2023-08-31T13:37:50;18.60;99.90
19483;DHT22;9882;51.166;6.992;2023-08-31T13:40:20;18.70;99.90
19483;DHT22;9882;51.166;6.992;2023-08-31T13:42:54;18.60;99.90
19483;DHT22;9882;51.166;6.992;2023-08-31T13:45:26;19.00;99.90
19483;DHT22;9882;51.166;6.992;2023-08-31T13:47:54;19.70;99.90
19483;DHT22;9882;51.166;6.992;2023-08-31T13:50:23;19.40;99.90
19483;DHT22;9882;51.166;6.992;2023-08-31T13:52:52;19.10;99.90
19483;DHT22;9882;51.166;6.992;2023-08-31T13:55:20;18.90;99.90
19483;DHT22;9882;51.166;6.992;2023-08-31T13:57:50;19.40;99.90
19483;DHT22;9882;51.166;6.992;2023-08-31T14:00:19;20.00;99.90
19483;DHT22;9882;51.166;6.992;2023-08-31T14:02:49;19.40;99.90
19483;DHT22;9882;51.166;6.992;2023-08-31T14:05:17;19.10;99.90
19483;DHT22;9882;51.166;6.992;2023-08-31T14:07:47;18.90;99.90
19483;DHT22;9882;51.166;6.992;2023-08-31T14:10:15;19.60;99.90
19483;DHT22;9882;51.166;6.992;2023-08-31T14:12:46;20.60;99.90
19483;DHT22;9882;51.166;6.992;2023-08-31T14:15:15;20.40;99.90
19483;DHT22;9882;51.166;6.992;2023-08-31T14:17:44;20.00;99.90
19483;DHT22;9882;51.166;6.992;2023-08-31T14:20:14;19.40;99.90
19483;DHT22;9882;51.166;6.992;2023-08-31T14:22:42;19.40;99.90
19483;DHT22;9882;51.166;6.992;2023-08-31T14:25:12;20.10;99.90
19483;DHT22;9882;51.166;6.992;2023-08-31T14:27:41;21.00;99.90
19483;DHT22;9882;51.166;6.992;2023-08-31T14:30:10;21.40;99.90
19483;DHT22;9882;51.166;6.992;2023-08-31T14:32:39;21.70;99.90
19483;DHT22;9882;51.166;6.992;2023-08-31T14:35:07;21.60;99.90
19483;DHT22;9882;51.166;6.992;2023-08-31T14:37:37;21.40;99.90
19483;DHT22;9882;51.166;6.992;2023-08-31T14:40:07;21.20;99.90
19483;DHT22;9882;51.166;6.992;2023-08-31T14:42:36;21.30;99.90
19483;DHT22;9882;51.166;6.992;2023-08-31T14:45:05;21.60;99.90
19483;DHT22;9882;51.166;6.992;2023-08-31T14:47:34;22.00;99.90
19483;DHT22;9882;51.166;6.992;2023-08-31T14:50:03;21.70;99.90
19483;DHT22;9882;51.166;6.992;2023-08-31T14:52:32;21.30;99.90
19483;DHT22;9882;51.166;6.992;2023-08-31T14:55:02;21.00;99.90
19483;DHT22;9882;51.166;6.992;2023-08-31T14:57:31;20.50;99.90
19483;DHT22;9882;51.166;6.992;2023-08-31T14:59:59;20.70;99.90
19483;DHT22;9882;51.166;6.992;2023-08-31T15:02:29;20.50;99.90
19483;DHT22;9882;51.166;6.992;2023-08-31T15:04:58;20.00;99.90
19483;DHT22;9882;51.166;6.992;2023-08-31T15:07:26;19.70;99.90
19483;DHT22;9882;51.166;6.992;2023-08-31T15:09:55;19.70;99.90
19483;DHT22;9882;51.166;6.992;2023-08-31T15:12:24;19.40;99.90
19483;DHT22;9882;51.166;6.992;2023-08-31T15:14:53;19.20;99.90
19483;DHT22;9882;51.166;6.992;2023-08-31T15:17:21;19.30;99.90
19483;DHT22;9882;51.166;6.992;2023-08-31T15:19:50;19.20;99.90
19483;DHT22;9882;51.166;6.992;2023-08-31T15:22:19;19.20;99.90
19483;DHT22;9882;51.166;6.992;2023-08-31T15:24:51;19.40;99.90
19483;DHT22;9882;51.166;6.992;2023-08-31T15:27:20;19.40;99.90
19483;DHT22;9882;51.166;6.992;2023-08-31T15:29:49;19.30;99.90
19483;DHT22;9882;51.166;6.992;2023-08-31T15:32:18;19.30;99.90
19483;DHT22;9882;51.166;6.992;2023-08-31T15:34:47;19.70;99.90
19483;DHT22;9882;51.166;6.992;2023-08-31T15:37:17;19.50;99.90
19483;DHT22;9882;51.166;6.992;2023-08-31T15:39:46;19.70;99.90
19483;DHT22;9882;51.166;6.992;2023-08-31T15:42:14;20.40;99.90
19483;DHT22;9882;51.166;6.992;2023-08-31T15:44:43;20.40;99.90
19483;DHT22;9882;51.166;6.992;2023-08-31T15:47:12;20.80;99.90
19483;DHT22;9882;51.166;6.992;2023-08-31T15:49:41;20.50;99.90
19483;DHT22;9882;51.166;6.992;2023-08-31T15:52:10;20.90;99.90
19483;DHT22;9882;51.166;6.992;2023-08-31T15:54:38;21.40;99.90
19483;DHT22;9882;51.166;6.992;2023-08-31T15:57:07;20.80;99.90
19483;DHT22;9882;51.166;6.992;2023-08-31T15:59:36;20.10;99.90
19483;DHT22;9882;51.166;6.992;2023-08-31T16:02:06;20.70;99.90
19483;DHT22;9882;51.166;6.992;2023-08-31T16:04:36;21.40;99.90
19483;DHT22;9882;51.166;6.992;2023-08-31T16:07:04;22.00;99.90
19483;DHT22;9882;51.166;6.992;2023-08-31T16:09:33;20.70;99.90
19483;DHT22;9882;51.166;6.992;2023-08-31T16:12:03;20.70;99.90
19483;DHT22;9882;51.166;6.992;2023-08-31T16:14:31;20.40;99.90
19483;DHT22;9882;51.166;6.992;2023-08-31T16:17:00;19.90;99.90
19483;DHT22;9882;51.166;6.992;2023-08-31T16:19:29;19.90;99.90
19483;DHT22;9882;51.166;6.992;2023-08-31T16:21:59;19.70;99.90
19483;DHT22;9882;51.166;6.992;2023-08-31T16:24:27;19.10;99.90
19483;DHT22;9882;51.166;6.992;2023-08-31T16:26:56;18.80;99.90
19483;DHT22;9882;51.166;6.992;2023-08-31T16:29:24;18.80;99.90